SAAR/ROS METAR and TAF weather

Enter ICAO airport designator
Station Type Date Time Source
SAAR METAR 2020/07/08 22:00 UTC NOAA

SAAR 082200Z 25005KT CAVOK 10/05 Q1021


Station Type Date Time Source
SAAR Decoded METAR 2020/07/08 22:00 UTC NOAA

Rosario Aerodrome, Argentina (SAAR) 32-55S 060-47W 25M
Jul 08, 2020 - 06:00 PM EDT / 2020.07.08 2200 UTC
Wind: from the WSW (250 degrees) at 6 MPH (5 KT):0
Visibility: greater than 7 mile(s):0
Temperature: 50 F (10 C)
Dew Point: 41 F (5 C)
Relative Humidity: 71%
Pressure (altimeter): 30.15 in. Hg (1021 hPa)
ob: SAAR 082200Z 25005KT CAVOK 10/05 Q1021
cycle: 22

Station Type Date Time Source
SAAR TAF 2020/07/08 18:12 UTC NOAA

TAF TAF SAAR 081700Z 0818/0918 VRB03KT CAVOK TX15/0918Z TN03/0911Z
BECMG 0820/0822 9999 SCT035 BKN080 PROB30 0823/0903 29005KT 8000 -RA SCT030 BKN040
BECMG 0904/0906 27005KT 9999 SCT030
TEMPO 0907/0911 7000
BECMG 0913/0916 33010KT CAVOK

Example: see airport list